sensor_id;sensor_type;location;lat;lon;timestamp;P1;durP1;ratioP1;P2;durP2;ratioP2
53881;SDS011;39794;55.782;37.452;2023-04-25T00:00:03;13.18;;;5.28;;
53881;SDS011;39794;55.782;37.452;2023-04-25T00:02:40;10.90;;;5.05;;
53881;SDS011;39794;55.782;37.452;2023-04-25T00:05:10;8.85;;;5.05;;
53881;SDS011;39794;55.782;37.452;2023-04-25T00:07:39;10.88;;;6.15;;
53881;SDS011;39794;55.782;37.452;2023-04-25T00:10:09;10.70;;;5.70;;
53881;SDS011;39794;55.782;37.452;2023-04-25T00:12:38;12.00;;;5.75;;
53881;SDS011;39794;55.782;37.452;2023-04-25T00:15:08;11.32;;;5.57;;
53881;SDS011;39794;55.782;37.452;2023-04-25T00:17:37;12.00;;;6.70;;
53881;SDS011;39794;55.782;37.452;2023-04-25T00:20:08;14.43;;;5.80;;
53881;SDS011;39794;55.782;37.452;2023-04-25T00:22:38;13.73;;;6.38;;
53881;SDS011;39794;55.782;37.452;2023-04-25T00:25:06;13.55;;;6.85;;
53881;SDS011;39794;55.782;37.452;2023-04-25T00:27:35;11.50;;;6.70;;
53881;SDS011;39794;55.782;37.452;2023-04-25T00:30:06;13.07;;;5.18;;
53881;SDS011;39794;55.782;37.452;2023-04-25T00:32:35;14.23;;;5.18;;
53881;SDS011;39794;55.782;37.452;2023-04-25T00:35:05;12.13;;;4.93;;
53881;SDS011;39794;55.782;37.452;2023-04-25T00:37:35;9.07;;;5.80;;
53881;SDS011;39794;55.782;37.452;2023-04-25T00:40:05;11.70;;;4.80;;
53881;SDS011;39794;55.782;37.452;2023-04-25T00:42:35;10.57;;;4.72;;
53881;SDS011;39794;55.782;37.452;2023-04-25T00:45:05;10.68;;;5.13;;
53881;SDS011;39794;55.782;37.452;2023-04-25T00:47:35;7.38;;;4.60;;
53881;SDS011;39794;55.782;37.452;2023-04-25T00:50:04;10.02;;;4.38;;
53881;SDS011;39794;55.782;37.452;2023-04-25T00:52:35;10.70;;;4.70;;
53881;SDS011;39794;55.782;37.452;2023-04-25T00:55:04;8.35;;;4.30;;
53881;SDS011;39794;55.782;37.452;2023-04-25T00:57:33;10.52;;;4.68;;
53881;SDS011;39794;55.782;37.452;2023-04-25T01:00:03;12.73;;;4.55;;
53881;SDS011;39794;55.782;37.452;2023-04-25T01:02:33;9.50;;;3.85;;
53881;SDS011;39794;55.782;37.452;2023-04-25T01:05:03;9.65;;;4.60;;
53881;SDS011;39794;55.782;37.452;2023-04-25T01:07:32;14.30;;;5.63;;
53881;SDS011;39794;55.782;37.452;2023-04-25T01:10:03;8.38;;;4.85;;
53881;SDS011;39794;55.782;37.452;2023-04-25T01:12:33;9.43;;;4.65;;
53881;SDS011;39794;55.782;37.452;2023-04-25T01:15:01;10.57;;;4.47;;
53881;SDS011;39794;55.782;37.452;2023-04-25T01:17:31;10.60;;;4.60;;
53881;SDS011;39794;55.782;37.452;2023-04-25T01:20:00;11.23;;;4.53;;
53881;SDS011;39794;55.782;37.452;2023-04-25T01:22:33;8.25;;;4.50;;
53881;SDS011;39794;55.782;37.452;2023-04-25T01:25:05;8.50;;;4.97;;
53881;SDS011;39794;55.782;37.452;2023-04-25T01:27:36;8.98;;;4.45;;
53881;SDS011;39794;55.782;37.452;2023-04-25T01:30:05;10.95;;;4.47;;
53881;SDS011;39794;55.782;37.452;2023-04-25T01:32:35;8.15;;;4.78;;
53881;SDS011;39794;55.782;37.452;2023-04-25T01:35:06;9.43;;;4.20;;
53881;SDS011;39794;55.782;37.452;2023-04-25T01:37:38;10.73;;;5.03;;
53881;SDS011;39794;55.782;37.452;2023-04-25T01:40:08;12.60;;;5.30;;
53881;SDS011;39794;55.782;37.452;2023-04-25T01:42:38;9.65;;;4.63;;
53881;SDS011;39794;55.782;37.452;2023-04-25T01:45:09;8.10;;;4.70;;
53881;SDS011;39794;55.782;37.452;2023-04-25T01:47:39;10.60;;;4.53;;
53881;SDS011;39794;55.782;37.452;2023-04-25T01:50:10;12.02;;;5.00;;
53881;SDS011;39794;55.782;37.452;2023-04-25T01:52:41;5.63;;;4.00;;
53881;SDS011;39794;55.782;37.452;2023-04-25T01:55:10;9.25;;;4.97;;
53881;SDS011;39794;55.782;37.452;2023-04-25T01:57:48;10.45;;;4.95;;
53881;SDS011;39794;55.782;37.452;2023-04-25T02:00:21;10.38;;;4.50;;
53881;SDS011;39794;55.782;37.452;2023-04-25T02:02:49;8.77;;;4.88;;
53881;SDS011;39794;55.782;37.452;2023-04-25T02:05:26;12.00;;;4.57;;
53881;SDS011;39794;55.782;37.452;2023-04-25T02:07:57;9.45;;;4.68;;
53881;SDS011;39794;55.782;37.452;2023-04-25T02:10:26;8.43;;;4.32;;
53881;SDS011;39794;55.782;37.452;2023-04-25T02:13:17;12.77;;;4.72;;
53881;SDS011;39794;55.782;37.452;2023-04-25T02:16:05;12.07;;;5.00;;
53881;SDS011;39794;55.782;37.452;2023-04-25T02:18:37;11.25;;;5.03;;
53881;SDS011;39794;55.782;37.452;2023-04-25T02:21:08;11.13;;;4.80;;
53881;SDS011;39794;55.782;37.452;2023-04-25T02:23:40;11.73;;;5.35;;
53881;SDS011;39794;55.782;37.452;2023-04-25T02:26:08;14.07;;;4.40;;
53881;SDS011;39794;55.782;37.452;2023-04-25T02:28:37;10.80;;;4.82;;
53881;SDS011;39794;55.782;37.452;2023-04-25T02:31:07;10.95;;;4.38;;
53881;SDS011;39794;55.782;37.452;2023-04-25T02:33:35;12.50;;;4.93;;
53881;SDS011;39794;55.782;37.452;2023-04-25T02:36:05;10.95;;;4.78;;
53881;SDS011;39794;55.782;37.452;2023-04-25T02:38:35;11.13;;;4.88;;
53881;SDS011;39794;55.782;37.452;2023-04-25T02:41:05;9.95;;;5.15;;
53881;SDS011;39794;55.782;37.452;2023-04-25T02:43:34;12.48;;;5.55;;
53881;SDS011;39794;55.782;37.452;2023-04-25T02:46:02;12.52;;;5.32;;
53881;SDS011;39794;55.782;37.452;2023-04-25T02:48:31;14.70;;;5.13;;
53881;SDS011;39794;55.782;37.452;2023-04-25T02:51:00;8.25;;;4.75;;
53881;SDS011;39794;55.782;37.452;2023-04-25T02:53:29;12.82;;;5.75;;
53881;SDS011;39794;55.782;37.452;2023-04-25T02:55:57;12.35;;;4.90;;
53881;SDS011;39794;55.782;37.452;2023-04-25T02:58:27;13.48;;;4.90;;
53881;SDS011;39794;55.782;37.452;2023-04-25T03:00:56;10.25;;;4.47;;
53881;SDS011;39794;55.782;37.452;2023-04-25T03:03:25;11.75;;;5.90;;
53881;SDS011;39794;55.782;37.452;2023-04-25T03:05:53;10.43;;;4.75;;
53881;SDS011;39794;55.782;37.452;2023-04-25T03:08:27;11.43;;;4.40;;
53881;SDS011;39794;55.782;37.452;2023-04-25T03:11:00;15.98;;;5.22;;
53881;SDS011;39794;55.782;37.452;2023-04-25T03:13:30;13.57;;;4.60;;
53881;SDS011;39794;55.782;37.452;2023-04-25T03:15:59;17.33;;;5.43;;
53881;SDS011;39794;55.782;37.452;2023-04-25T03:18:29;10.60;;;4.93;;
53881;SDS011;39794;55.782;37.452;2023-04-25T03:20:57;10.43;;;4.90;;
53881;SDS011;39794;55.782;37.452;2023-04-25T03:23:26;8.75;;;4.47;;
53881;SDS011;39794;55.782;37.452;2023-04-25T03:25:54;10.20;;;4.68;;
53881;SDS011;39794;55.782;37.452;2023-04-25T03:28:23;7.85;;;4.20;;
53881;SDS011;39794;55.782;37.452;2023-04-25T03:30:53;10.25;;;5.10;;
53881;SDS011;39794;55.782;37.452;2023-04-25T03:33:23;7.53;;;4.63;;
53881;SDS011;39794;55.782;37.452;2023-04-25T03:35:52;16.08;;;4.70;;
53881;SDS011;39794;55.782;37.452;2023-04-25T03:38:21;8.15;;;4.72;;
53881;SDS011;39794;55.782;37.452;2023-04-25T03:40:49;11.68;;;4.88;;
53881;SDS011;39794;55.782;37.452;2023-04-25T03:43:25;12.15;;;5.25;;
53881;SDS011;39794;55.782;37.452;2023-04-25T03:46:01;10.23;;;4.70;;
53881;SDS011;39794;55.782;37.452;2023-04-25T03:48:30;10.68;;;4.30;;
53881;SDS011;39794;55.782;37.452;2023-04-25T03:50:59;8.82;;;4.47;;
53881;SDS011;39794;55.782;37.452;2023-04-25T03:53:29;11.70;;;4.88;;
53881;SDS011;39794;55.782;37.452;2023-04-25T03:56:16;10.27;;;4.35;;
53881;SDS011;39794;55.782;37.452;2023-04-25T03:58:55;9.27;;;4.22;;
53881;SDS011;39794;55.782;37.452;2023-04-25T04:01:27;13.82;;;5.00;;
53881;SDS011;39794;55.782;37.452;2023-04-25T04:03:56;11.00;;;4.43;;
53881;SDS011;39794;55.782;37.452;2023-04-25T04:06:26;10.63;;;4.50;;
53881;SDS011;39794;55.782;37.452;2023-04-25T04:09:07;15.65;;;5.45;;
53881;SDS011;39794;55.782;37.452;2023-04-25T04:11:40;12.80;;;4.75;;
53881;SDS011;39794;55.782;37.452;2023-04-25T04:14:12;8.77;;;4.43;;
53881;SDS011;39794;55.782;37.452;2023-04-25T04:16:45;13.32;;;4.15;;
53881;SDS011;39794;55.782;37.452;2023-04-25T04:19:14;13.95;;;5.75;;
53881;SDS011;39794;55.782;37.452;2023-04-25T04:21:49;10.00;;;4.97;;
53881;SDS011;39794;55.782;37.452;2023-04-25T04:24:18;11.88;;;5.40;;
53881;SDS011;39794;55.782;37.452;2023-04-25T04:26:52;10.70;;;5.35;;
53881;SDS011;39794;55.782;37.452;2023-04-25T04:29:29;14.38;;;6.00;;
53881;SDS011;39794;55.782;37.452;2023-04-25T04:32:09;15.93;;;5.65;;
53881;SDS011;39794;55.782;37.452;2023-04-25T04:34:37;10.80;;;6.07;;
53881;SDS011;39794;55.782;37.452;2023-04-25T04:37:09;15.55;;;6.80;;
53881;SDS011;39794;55.782;37.452;2023-04-25T04:39:40;18.65;;;6.70;;
53881;SDS011;39794;55.782;37.452;2023-04-25T04:42:30;11.55;;;5.70;;
53881;SDS011;39794;55.782;37.452;2023-04-25T04:45:22;14.82;;;6.65;;
53881;SDS011;39794;55.782;37.452;2023-04-25T04:48:28;17.08;;;6.63;;
53881;SDS011;39794;55.782;37.452;2023-04-25T04:51:37;17.77;;;6.70;;
53881;SDS011;39794;55.782;37.452;2023-04-25T04:54:24;17.60;;;6.45;;
53881;SDS011;39794;55.782;37.452;2023-04-25T04:57:12;16.25;;;6.68;;
53881;SDS011;39794;55.782;37.452;2023-04-25T04:59:53;14.63;;;5.97;;
53881;SDS011;39794;55.782;37.452;2023-04-25T05:02:42;17.85;;;6.60;;
53881;SDS011;39794;55.782;37.452;2023-04-25T05:05:30;14.70;;;6.50;;
53881;SDS011;39794;55.782;37.452;2023-04-25T05:08:17;15.57;;;6.47;;
53881;SDS011;39794;55.782;37.452;2023-04-25T05:11:12;18.80;;;7.35;;
53881;SDS011;39794;55.782;37.452;2023-04-25T05:13:53;18.55;;;7.78;;
53881;SDS011;39794;55.782;37.452;2023-04-25T05:16:45;22.38;;;7.35;;
53881;SDS011;39794;55.782;37.452;2023-04-25T05:19:23;15.23;;;7.18;;
53881;SDS011;39794;55.782;37.452;2023-04-25T05:22:12;19.90;;;7.43;;
53881;SDS011;39794;55.782;37.452;2023-04-25T05:24:58;19.88;;;7.40;;
53881;SDS011;39794;55.782;37.452;2023-04-25T05:27:50;13.45;;;7.90;;
53881;SDS011;39794;55.782;37.452;2023-04-25T05:30:29;21.50;;;8.10;;
53881;SDS011;39794;55.782;37.452;2023-04-25T05:33:05;15.63;;;8.60;;
53881;SDS011;39794;55.782;37.452;2023-04-25T05:35:34;16.35;;;8.35;;
53881;SDS011;39794;55.782;37.452;2023-04-25T05:38:05;19.60;;;8.65;;
53881;SDS011;39794;55.782;37.452;2023-04-25T05:40:52;21.13;;;8.55;;
53881;SDS011;39794;55.782;37.452;2023-04-25T05:43:57;17.63;;;8.90;;
53881;SDS011;39794;55.782;37.452;2023-04-25T05:46:43;14.20;;;7.13;;
53881;SDS011;39794;55.782;37.452;2023-04-25T05:49:29;18.50;;;7.47;;
53881;SDS011;39794;55.782;37.452;2023-04-25T05:52:18;12.57;;;6.97;;
53881;SDS011;39794;55.782;37.452;2023-04-25T05:54:57;15.73;;;6.40;;
53881;SDS011;39794;55.782;37.452;2023-04-25T05:57:26;23.60;;;7.20;;
53881;SDS011;39794;55.782;37.452;2023-04-25T05:59:55;13.57;;;6.82;;
53881;SDS011;39794;55.782;37.452;2023-04-25T06:02:39;13.98;;;6.75;;
53881;SDS011;39794;55.782;37.452;2023-04-25T06:05:10;14.02;;;6.90;;
53881;SDS011;39794;55.782;37.452;2023-04-25T06:07:40;11.25;;;6.38;;
53881;SDS011;39794;55.782;37.452;2023-04-25T06:10:10;19.45;;;7.10;;
53881;SDS011;39794;55.782;37.452;2023-04-25T06:12:39;16.60;;;7.25;;
53881;SDS011;39794;55.782;37.452;2023-04-25T06:15:08;13.23;;;7.75;;
53881;SDS011;39794;55.782;37.452;2023-04-25T06:17:53;11.95;;;6.18;;
53881;SDS011;39794;55.782;37.452;2023-04-25T06:20:22;14.80;;;6.65;;
53881;SDS011;39794;55.782;37.452;2023-04-25T06:22:54;14.85;;;6.18;;
53881;SDS011;39794;55.782;37.452;2023-04-25T06:25:33;10.32;;;5.90;;
53881;SDS011;39794;55.782;37.452;2023-04-25T06:28:02;14.77;;;6.22;;
53881;SDS011;39794;55.782;37.452;2023-04-25T06:30:31;15.75;;;5.38;;
53881;SDS011;39794;55.782;37.452;2023-04-25T06:33:05;16.15;;;6.13;;
53881;SDS011;39794;55.782;37.452;2023-04-25T06:35:36;11.27;;;5.72;;
53881;SDS011;39794;55.782;37.452;2023-04-25T06:38:06;9.55;;;6.40;;
53881;SDS011;39794;55.782;37.452;2023-04-25T06:40:38;13.65;;;6.00;;
53881;SDS011;39794;55.782;37.452;2023-04-25T06:43:09;14.93;;;5.53;;
53881;SDS011;39794;55.782;37.452;2023-04-25T06:46:02;11.13;;;5.85;;
53881;SDS011;39794;55.782;37.452;2023-04-25T06:48:35;14.00;;;6.60;;
53881;SDS011;39794;55.782;37.452;2023-04-25T06:51:04;16.13;;;6.40;;
53881;SDS011;39794;55.782;37.452;2023-04-25T06:53:34;14.63;;;6.32;;
53881;SDS011;39794;55.782;37.452;2023-04-25T06:56:07;15.18;;;7.88;;
53881;SDS011;39794;55.782;37.452;2023-04-25T06:58:51;18.55;;;6.53;;
53881;SDS011;39794;55.782;37.452;2023-04-25T07:01:43;10.98;;;5.80;;
53881;SDS011;39794;55.782;37.452;2023-04-25T07:04:24;12.27;;;4.88;;
53881;SDS011;39794;55.782;37.452;2023-04-25T07:06:56;11.70;;;4.45;;
53881;SDS011;39794;55.782;37.452;2023-04-25T07:09:41;10.07;;;4.20;;
53881;SDS011;39794;55.782;37.452;2023-04-25T07:12:11;9.23;;;4.50;;
53881;SDS011;39794;55.782;37.452;2023-04-25T07:14:40;7.57;;;4.85;;
53881;SDS011;39794;55.782;37.452;2023-04-25T07:17:09;9.43;;;4.25;;
53881;SDS011;39794;55.782;37.452;2023-04-25T07:19:38;15.32;;;5.10;;
53881;SDS011;39794;55.782;37.452;2023-04-25T07:22:08;9.38;;;4.35;;
53881;SDS011;39794;55.782;37.452;2023-04-25T07:24:39;9.18;;;4.10;;
53881;SDS011;39794;55.782;37.452;2023-04-25T07:27:13;12.23;;;4.20;;
53881;SDS011;39794;55.782;37.452;2023-04-25T07:29:50;8.63;;;4.20;;
53881;SDS011;39794;55.782;37.452;2023-04-25T07:32:22;11.52;;;5.00;;
53881;SDS011;39794;55.782;37.452;2023-04-25T07:34:50;11.88;;;4.63;;
53881;SDS011;39794;55.782;37.452;2023-04-25T07:37:19;17.35;;;5.03;;
53881;SDS011;39794;55.782;37.452;2023-04-25T07:39:59;18.02;;;5.40;;
53881;SDS011;39794;55.782;37.452;2023-04-25T07:42:31;16.85;;;5.47;;
53881;SDS011;39794;55.782;37.452;2023-04-25T07:45:01;9.75;;;3.50;;
53881;SDS011;39794;55.782;37.452;2023-04-25T07:47:30;9.07;;;3.53;;
53881;SDS011;39794;55.782;37.452;2023-04-25T07:49:59;9.88;;;3.78;;
53881;SDS011;39794;55.782;37.452;2023-04-25T07:52:30;10.30;;;3.60;;
53881;SDS011;39794;55.782;37.452;2023-04-25T07:55:06;15.63;;;5.05;;
53881;SDS011;39794;55.782;37.452;2023-04-25T07:58:04;15.20;;;4.82;;
53881;SDS011;39794;55.782;37.452;2023-04-25T08:00:32;11.25;;;4.60;;
53881;SDS011;39794;55.782;37.452;2023-04-25T08:03:21;11.05;;;4.63;;
53881;SDS011;39794;55.782;37.452;2023-04-25T08:05:51;14.93;;;4.88;;
53881;SDS011;39794;55.782;37.452;2023-04-25T08:08:20;19.40;;;5.63;;
53881;SDS011;39794;55.782;37.452;2023-04-25T08:10:48;12.88;;;4.72;;
53881;SDS011;39794;55.782;37.452;2023-04-25T08:13:18;13.35;;;3.72;;
53881;SDS011;39794;55.782;37.452;2023-04-25T08:15:48;7.53;;;3.95;;
53881;SDS011;39794;55.782;37.452;2023-04-25T08:18:16;14.50;;;4.20;;
53881;SDS011;39794;55.782;37.452;2023-04-25T08:20:47;12.45;;;4.18;;
53881;SDS011;39794;55.782;37.452;2023-04-25T08:23:16;22.75;;;4.60;;
53881;SDS011;39794;55.782;37.452;2023-04-25T08:25:52;10.63;;;3.63;;
53881;SDS011;39794;55.782;37.452;2023-04-25T08:28:26;8.40;;;4.15;;
53881;SDS011;39794;55.782;37.452;2023-04-25T08:30:57;13.05;;;4.43;;
53881;SDS011;39794;55.782;37.452;2023-04-25T08:33:33;8.07;;;3.55;;
53881;SDS011;39794;55.782;37.452;2023-04-25T08:36:32;14.68;;;4.82;;
53881;SDS011;39794;55.782;37.452;2023-04-25T08:39:24;12.98;;;4.60;;
53881;SDS011;39794;55.782;37.452;2023-04-25T08:42:12;9.68;;;4.25;;
53881;SDS011;39794;55.782;37.452;2023-04-25T08:44:42;13.88;;;4.72;;
53881;SDS011;39794;55.782;37.452;2023-04-25T08:47:12;14.25;;;4.68;;
53881;SDS011;39794;55.782;37.452;2023-04-25T08:49:46;12.32;;;4.07;;
53881;SDS011;39794;55.782;37.452;2023-04-25T08:52:19;16.38;;;4.50;;
53881;SDS011;39794;55.782;37.452;2023-04-25T08:54:51;15.77;;;4.00;;
53881;SDS011;39794;55.782;37.452;2023-04-25T08:57:29;7.57;;;3.28;;
53881;SDS011;39794;55.782;37.452;2023-04-25T09:00:01;7.55;;;3.63;;
53881;SDS011;39794;55.782;37.452;2023-04-25T09:02:35;18.17;;;4.20;;
53881;SDS011;39794;55.782;37.452;2023-04-25T09:05:04;19.45;;;5.47;;
53881;SDS011;39794;55.782;37.452;2023-04-25T09:07:38;9.40;;;4.85;;
53881;SDS011;39794;55.782;37.452;2023-04-25T09:10:10;9.30;;;4.40;;
53881;SDS011;39794;55.782;37.452;2023-04-25T09:12:41;9.07;;;4.00;;
53881;SDS011;39794;55.782;37.452;2023-04-25T09:15:12;11.07;;;4.50;;
53881;SDS011;39794;55.782;37.452;2023-04-25T09:18:04;7.53;;;3.63;;
53881;SDS011;39794;55.782;37.452;2023-04-25T09:20:50;11.02;;;3.70;;
53881;SDS011;39794;55.782;37.452;2023-04-25T09:23:23;7.10;;;3.63;;
53881;SDS011;39794;55.782;37.452;2023-04-25T09:25:54;9.52;;;3.28;;
53881;SDS011;39794;55.782;37.452;2023-04-25T09:28:23;8.23;;;2.97;;
53881;SDS011;39794;55.782;37.452;2023-04-25T09:33:37;10.88;;;3.35;;
53881;SDS011;39794;55.782;37.452;2023-04-25T09:36:08;10.43;;;3.87;;
53881;SDS011;39794;55.782;37.452;2023-04-25T09:38:59;10.65;;;3.67;;
53881;SDS011;39794;55.782;37.452;2023-04-25T09:41:36;11.20;;;3.80;;
53881;SDS011;39794;55.782;37.452;2023-04-25T09:44:05;7.93;;;3.30;;
53881;SDS011;39794;55.782;37.452;2023-04-25T09:46:37;8.10;;;3.00;;
53881;SDS011;39794;55.782;37.452;2023-04-25T09:49:14;6.47;;;3.10;;
53881;SDS011;39794;55.782;37.452;2023-04-25T09:52:15;4.32;;;2.75;;
53881;SDS011;39794;55.782;37.452;2023-04-25T09:55:13;7.53;;;2.55;;
53881;SDS011;39794;55.782;37.452;2023-04-25T09:57:45;9.65;;;2.90;;
53881;SDS011;39794;55.782;37.452;2023-04-25T10:00:18;7.53;;;2.90;;
53881;SDS011;39794;55.782;37.452;2023-04-25T10:02:49;7.20;;;3.45;;
53881;SDS011;39794;55.782;37.452;2023-04-25T10:05:38;12.15;;;3.60;;
53881;SDS011;39794;55.782;37.452;2023-04-25T10:08:07;9.90;;;3.60;;
53881;SDS011;39794;55.782;37.452;2023-04-25T10:10:36;11.05;;;4.13;;
53881;SDS011;39794;55.782;37.452;2023-04-25T10:13:05;9.07;;;3.55;;
53881;SDS011;39794;55.782;37.452;2023-04-25T10:15:35;5.45;;;3.40;;
53881;SDS011;39794;55.782;37.452;2023-04-25T10:18:07;5.15;;;3.47;;
53881;SDS011;39794;55.782;37.452;2023-04-25T10:20:37;6.50;;;3.90;;
53881;SDS011;39794;55.782;37.452;2023-04-25T10:23:06;9.98;;;4.00;;
53881;SDS011;39794;55.782;37.452;2023-04-25T10:25:39;9.75;;;3.90;;
53881;SDS011;39794;55.782;37.452;2023-04-25T10:28:08;9.73;;;4.20;;
53881;SDS011;39794;55.782;37.452;2023-04-25T10:30:37;8.38;;;4.30;;
53881;SDS011;39794;55.782;37.452;2023-04-25T10:33:14;7.03;;;4.20;;
53881;SDS011;39794;55.782;37.452;2023-04-25T10:35:44;6.97;;;3.83;;
53881;SDS011;39794;55.782;37.452;2023-04-25T10:38:13;9.27;;;3.22;;
53881;SDS011;39794;55.782;37.452;2023-04-25T10:40:53;10.75;;;3.47;;
53881;SDS011;39794;55.782;37.452;2023-04-25T10:43:35;10.57;;;3.92;;
53881;SDS011;39794;55.782;37.452;2023-04-25T10:46:18;9.10;;;3.95;;
53881;SDS011;39794;55.782;37.452;2023-04-25T10:48:49;6.05;;;4.10;;
53881;SDS011;39794;55.782;37.452;2023-04-25T10:51:19;8.15;;;3.95;;
53881;SDS011;39794;55.782;37.452;2023-04-25T10:56:37;6.53;;;3.08;;
53881;SDS011;39794;55.782;37.452;2023-04-25T10:59:09;9.35;;;3.10;;
53881;SDS011;39794;55.782;37.452;2023-04-25T11:01:40;6.35;;;3.97;;
53881;SDS011;39794;55.782;37.452;2023-04-25T11:04:22;7.30;;;2.95;;
53881;SDS011;39794;55.782;37.452;2023-04-25T11:06:58;8.98;;;2.83;;
53881;SDS011;39794;55.782;37.452;2023-04-25T11:09:34;8.75;;;3.08;;
53881;SDS011;39794;55.782;37.452;2023-04-25T11:12:03;6.53;;;2.72;;
53881;SDS011;39794;55.782;37.452;2023-04-25T11:14:33;6.20;;;2.70;;
53881;SDS011;39794;55.782;37.452;2023-04-25T11:17:01;4.15;;;2.05;;
53881;SDS011;39794;55.782;37.452;2023-04-25T11:19:32;4.43;;;2.47;;
53881;SDS011;39794;55.782;37.452;2023-04-25T11:22:01;4.72;;;2.13;;
53881;SDS011;39794;55.782;37.452;2023-04-25T11:24:31;5.63;;;2.50;;
53881;SDS011;39794;55.782;37.452;2023-04-25T11:27:01;8.18;;;2.75;;
53881;SDS011;39794;55.782;37.452;2023-04-25T11:29:31;4.78;;;2.55;;
53881;SDS011;39794;55.782;37.452;2023-04-25T11:32:00;7.30;;;2.60;;
53881;SDS011;39794;55.782;37.452;2023-04-25T11:34:29;6.75;;;2.40;;
53881;SDS011;39794;55.782;37.452;2023-04-25T11:37:00;4.75;;;2.95;;
53881;SDS011;39794;55.782;37.452;2023-04-25T11:39:30;4.63;;;2.53;;
53881;SDS011;39794;55.782;37.452;2023-04-25T11:41:58;7.55;;;2.53;;
53881;SDS011;39794;55.782;37.452;2023-04-25T11:44:31;7.88;;;2.80;;
53881;SDS011;39794;55.782;37.452;2023-04-25T11:46:59;5.15;;;2.25;;
53881;SDS011;39794;55.782;37.452;2023-04-25T11:49:30;6.45;;;2.17;;
53881;SDS011;39794;55.782;37.452;2023-04-25T11:52:00;4.10;;;2.50;;
53881;SDS011;39794;55.782;37.452;2023-04-25T11:54:28;6.50;;;3.50;;
53881;SDS011;39794;55.782;37.452;2023-04-25T11:56:58;4.13;;;2.13;;
53881;SDS011;39794;55.782;37.452;2023-04-25T11:59:28;5.65;;;2.38;;
53881;SDS011;39794;55.782;37.452;2023-04-25T12:01:57;5.97;;;2.70;;
53881;SDS011;39794;55.782;37.452;2023-04-25T12:04:29;7.55;;;2.85;;
53881;SDS011;39794;55.782;37.452;2023-04-25T12:07:00;7.25;;;2.53;;
53881;SDS011;39794;55.782;37.452;2023-04-25T12:09:29;10.13;;;3.05;;
53881;SDS011;39794;55.782;37.452;2023-04-25T12:11:59;6.25;;;2.70;;
53881;SDS011;39794;55.782;37.452;2023-04-25T12:14:32;7.72;;;2.28;;
53881;SDS011;39794;55.782;37.452;2023-04-25T12:17:02;4.57;;;2.85;;
53881;SDS011;39794;55.782;37.452;2023-04-25T12:19:37;9.00;;;2.72;;
53881;SDS011;39794;55.782;37.452;2023-04-25T12:22:18;6.88;;;2.55;;
53881;SDS011;39794;55.782;37.452;2023-04-25T12:24:48;4.57;;;2.30;;
53881;SDS011;39794;55.782;37.452;2023-04-25T12:27:16;3.63;;;2.20;;
53881;SDS011;39794;55.782;37.452;2023-04-25T12:29:52;9.70;;;2.60;;
53881;SDS011;39794;55.782;37.452;2023-04-25T12:32:22;7.55;;;2.40;;
53881;SDS011;39794;55.782;37.452;2023-04-25T12:34:51;10.05;;;2.80;;
53881;SDS011;39794;55.782;37.452;2023-04-25T12:37:20;6.55;;;2.70;;
53881;SDS011;39794;55.782;37.452;2023-04-25T12:39:49;8.00;;;2.65;;
53881;SDS011;39794;55.782;37.452;2023-04-25T12:42:18;6.13;;;2.40;;
53881;SDS011;39794;55.782;37.452;2023-04-25T12:44:46;12.13;;;2.60;;
53881;SDS011;39794;55.782;37.452;2023-04-25T12:47:15;8.40;;;2.58;;
53881;SDS011;39794;55.782;37.452;2023-04-25T12:49:43;10.82;;;2.65;;
53881;SDS011;39794;55.782;37.452;2023-04-25T12:52:13;6.28;;;2.60;;
53881;SDS011;39794;55.782;37.452;2023-04-25T12:54:42;10.13;;;2.53;;
53881;SDS011;39794;55.782;37.452;2023-04-25T12:57:11;8.48;;;2.47;;
53881;SDS011;39794;55.782;37.452;2023-04-25T12:59:39;7.75;;;2.63;;
53881;SDS011;39794;55.782;37.452;2023-04-25T13:02:10;5.78;;;2.42;;
53881;SDS011;39794;55.782;37.452;2023-04-25T13:04:42;10.60;;;2.42;;
53881;SDS011;39794;55.782;37.452;2023-04-25T13:07:11;6.30;;;2.60;;
53881;SDS011;39794;55.782;37.452;2023-04-25T13:09:52;6.85;;;2.20;;
53881;SDS011;39794;55.782;37.452;2023-04-25T13:12:21;5.32;;;2.58;;
53881;SDS011;39794;55.782;37.452;2023-04-25T13:14:50;5.40;;;2.20;;
53881;SDS011;39794;55.782;37.452;2023-04-25T13:17:19;6.10;;;2.33;;
53881;SDS011;39794;55.782;37.452;2023-04-25T13:19:49;12.55;;;3.08;;
53881;SDS011;39794;55.782;37.452;2023-04-25T13:22:18;9.25;;;3.08;;
53881;SDS011;39794;55.782;37.452;2023-04-25T13:24:47;8.15;;;2.33;;
53881;SDS011;39794;55.782;37.452;2023-04-25T13:27:15;6.82;;;2.85;;
53881;SDS011;39794;55.782;37.452;2023-04-25T13:29:44;10.63;;;2.63;;
53881;SDS011;39794;55.782;37.452;2023-04-25T13:32:12;8.80;;;2.53;;
53881;SDS011;39794;55.782;37.452;2023-04-25T13:34:44;7.20;;;2.45;;
53881;SDS011;39794;55.782;37.452;2023-04-25T13:37:13;9.60;;;2.40;;
53881;SDS011;39794;55.782;37.452;2023-04-25T13:39:43;4.00;;;2.35;;
53881;SDS011;39794;55.782;37.452;2023-04-25T13:42:12;5.50;;;2.63;;
53881;SDS011;39794;55.782;37.452;2023-04-25T13:44:41;7.53;;;3.60;;
53881;SDS011;39794;55.782;37.452;2023-04-25T13:47:09;10.13;;;2.90;;
53881;SDS011;39794;55.782;37.452;2023-04-25T13:49:40;10.02;;;3.50;;
53881;SDS011;39794;55.782;37.452;2023-04-25T13:52:08;5.57;;;2.40;;
53881;SDS011;39794;55.782;37.452;2023-04-25T13:54:37;10.40;;;2.50;;
53881;SDS011;39794;55.782;37.452;2023-04-25T13:57:07;8.50;;;2.42;;
53881;SDS011;39794;55.782;37.452;2023-04-25T13:59:35;8.00;;;2.70;;
53881;SDS011;39794;55.782;37.452;2023-04-25T14:02:04;8.13;;;2.80;;
53881;SDS011;39794;55.782;37.452;2023-04-25T14:04:34;6.38;;;2.88;;
53881;SDS011;39794;55.782;37.452;2023-04-25T14:07:03;6.28;;;3.20;;
53881;SDS011;39794;55.782;37.452;2023-04-25T14:09:32;6.10;;;2.80;;
53881;SDS011;39794;55.782;37.452;2023-04-25T14:12:01;6.40;;;2.42;;
53881;SDS011;39794;55.782;37.452;2023-04-25T14:14:31;7.93;;;2.60;;
53881;SDS011;39794;55.782;37.452;2023-04-25T14:17:00;6.18;;;2.33;;
53881;SDS011;39794;55.782;37.452;2023-04-25T14:19:30;9.25;;;2.90;;
53881;SDS011;39794;55.782;37.452;2023-04-25T14:22:01;6.53;;;2.88;;
53881;SDS011;39794;55.782;37.452;2023-04-25T14:24:30;6.43;;;2.83;;
53881;SDS011;39794;55.782;37.452;2023-04-25T14:26:58;8.77;;;3.33;;
53881;SDS011;39794;55.782;37.452;2023-04-25T14:29:27;6.28;;;2.72;;
53881;SDS011;39794;55.782;37.452;2023-04-25T14:31:57;6.85;;;2.28;;
53881;SDS011;39794;55.782;37.452;2023-04-25T14:34:26;4.72;;;2.72;;
53881;SDS011;39794;55.782;37.452;2023-04-25T14:36:54;8.70;;;2.85;;
53881;SDS011;39794;55.782;37.452;2023-04-25T14:39:23;5.00;;;2.42;;
53881;SDS011;39794;55.782;37.452;2023-04-25T14:41:52;4.97;;;2.15;;
53881;SDS011;39794;55.782;37.452;2023-04-25T14:44:20;10.20;;;2.88;;
53881;SDS011;39794;55.782;37.452;2023-04-25T14:46:49;3.70;;;2.38;;
53881;SDS011;39794;55.782;37.452;2023-04-25T14:49:22;4.15;;;1.90;;
53881;SDS011;39794;55.782;37.452;2023-04-25T14:51:53;8.25;;;2.38;;
53881;SDS011;39794;55.782;37.452;2023-04-25T14:54:21;7.65;;;2.40;;
53881;SDS011;39794;55.782;37.452;2023-04-25T14:56:51;8.38;;;2.70;;
53881;SDS011;39794;55.782;37.452;2023-04-25T14:59:20;4.18;;;2.30;;
53881;SDS011;39794;55.782;37.452;2023-04-25T15:01:50;10.98;;;2.75;;
53881;SDS011;39794;55.782;37.452;2023-04-25T15:04:18;9.60;;;2.50;;
53881;SDS011;39794;55.782;37.452;2023-04-25T15:06:49;6.78;;;2.53;;